This is the latest recevied weather packets stored in our database for station/object CT1EDG-13. If no packets are shown the sender has not sent any weather packets the latest 10 day(s).
| Time | Temp. | Humidity | Pressure | Rain* | Wind** | Luminosity | Snow |
|---|---|---|---|---|---|---|---|
| 1788517418 | 27.78° C | 78% | 1010.4 hPa | 0 mm | - | - | - |
| 1788516820 | 27.78° C | 80% | 1009.9 hPa | 0 mm | - | - | - |
| 1788516818 | 27.78° C | 80% | 1009.9 hPa | 0 mm | - | - | - |
| 1788516220 | 28.33° C | 76% | 1009.3 hPa | 0 mm | - | - | - |
| 1788516218 | 28.33° C | 76% | 1009.3 hPa | 0 mm | - | - | - |
| 1788515620 | 27.22° C | 79% | 1008.9 hPa | 0 mm | - | - | - |
| 1788515618 | 27.22° C | 79% | 1008.9 hPa | 0 mm | - | - | - |
| 1788515020 | 26.67° C | 83% | 1009 hPa | 0 mm | - | - | - |
| 1788515018 | 26.67° C | 83% | 1009 hPa | 0 mm | - | - | - |
| 1788514420 | 26.11° C | 88% | 1009.5 hPa | 0 mm | - | - | - |
| 1788514418 | 26.11° C | 88% | 1009.5 hPa | 0 mm | - | - | - |
| 1788513819 | 26.67° C | 88% | 1009.7 hPa | 0 mm | - | - | - |
| 1788513818 | 26.67° C | 88% | 1009.7 hPa | 0 mm | - | - | - |
| 1788513219 | 26.11° C | 91% | 1010.6 hPa | 0 mm | - | - | - |
| 1788513218 | 26.11° C | 91% | 1010.6 hPa | 0 mm | - | - | - |
| 1788512620 | 24.44° C | 98% | 1010.8 hPa | 0 mm | - | - | - |
| 1788512618 | 24.44° C | 98% | 1010.8 hPa | 0 mm | - | - | - |
| 1788512020 | 23.89° C | 10% | - | 0 mm | - | - | - |
| 1788512018 | 23.89° C | 10% | - | 0 mm | - | - | - |
| 1788511419 | 23.33° C | 11% | - | 0 mm | - | - | - |
| 1788511418 | 23.33° C | 11% | - | 0 mm | - | - | - |
| 1788510819 | 22.22° C | 11% | - | 0 mm | - | - | - |
| 1788510818 | 22.22° C | 11% | - | 0 mm | - | - | - |
| 1788510220 | 21.11° C | 11% | - | 0 mm | - | - | - |
| 1788510218 | 21.11° C | 11% | - | 0 mm | - | - | - |
* Rain latest hour (hover to see other rain measurements)
** Current wind speed in m/s (hover to see current wind gust speed)